Time;durP1;ratioP1;P1;durP2;ratioP2;P2;SDS_P1;SDS_P2;PMS_P1;PMS_P2;Temp;Humidity;BMP_temperature;BMP_pressure;BME280_temperature;BME280_humidity;BME280_pressure;Samples;Min_cycle;Max_cycle;Signal;HPM_P1;HPM_P2
2023/09/23 00:00:34;;;;;;;4.25;1.50;;;13.50;99.90;;;;;;5070975;28;20024;-72
2023/09/23 00:02:59;;;;;;;3.85;1.25;;;13.50;99.90;;;;;;5070792;28;20033;-71
2023/09/23 00:05:26;;;;;;;4.63;1.30;;;13.50;99.90;;;;;;5070188;28;20051;-71
2023/09/23 00:07:52;;;;;;;5.18;1.60;;;13.50;99.90;;;;;;5071107;28;20216;-72
2023/09/23 00:10:20;;;;;;;7.03;1.60;;;13.50;99.90;;;;;;5070207;28;20028;-71
2023/09/23 00:12:46;;;;;;;4.22;1.55;;;13.50;99.90;;;;;;5070901;28;20070;-71
2023/09/23 00:15:11;;;;;;;7.07;2.10;;;13.50;99.90;;;;;;5070080;28;20422;-71
2023/09/23 00:17:37;;;;;;;5.47;2.17;;;13.50;99.90;;;;;;5070250;28;20025;-71
2023/09/23 00:20:17;;;;;;;4.90;2.53;;;13.50;99.90;;;;;;5070851;28;20055;-71
2023/09/23 00:22:46;;;;;;;6.90;4.05;;;13.50;99.90;;;;;;5070515;28;20070;-71
2023/09/23 00:25:13;;;;;;;7.65;5.00;;;13.50;99.90;;;;;;5070359;28;20104;-71
2023/09/23 00:27:41;;;;;;;9.23;5.47;;;13.40;99.90;;;;;;5070753;28;20013;-71
2023/09/23 00:30:07;;;;;;;9.65;6.30;;;13.40;99.90;;;;;;5065593;28;20519;-71
2023/09/23 00:32:34;;;;;;;10.48;7.60;;;13.40;99.90;;;;;;5071131;28;20032;-71
2023/09/23 00:35:00;;;;;;;12.90;8.55;;;13.40;99.90;;;;;;5072721;28;20052;-71
2023/09/23 00:37:26;;;;;;;18.27;10.18;;;13.40;99.90;;;;;;5073780;28;20078;-71
2023/09/23 00:39:52;;;;;;;15.75;10.90;;;13.40;99.90;;;;;;5071967;28;20097;-71
2023/09/23 00:42:21;;;;;;;14.23;10.27;;;13.40;99.90;;;;;;5069966;28;20025;-71
2023/09/23 00:44:47;;;;;;;16.20;11.63;;;13.40;99.90;;;;;;5066162;28;20062;-72
2023/09/23 00:47:13;;;;;;;17.75;11.30;;;13.40;99.90;;;;;;5067119;28;20021;-72
2023/09/23 00:49:44;;;;;;;20.33;11.82;;;13.40;99.90;;;;;;5061910;28;20384;-72
2023/09/23 00:52:13;;;;;;;17.20;12.07;;;13.40;99.90;;;;;;5069621;28;20020;-72
2023/09/23 00:54:42;;;;;;;16.63;11.73;;;13.40;99.90;;;;;;5069945;28;20009;-72
2023/09/23 00:57:08;;;;;;;18.25;12.23;;;13.40;99.90;;;;;;5069690;28;20423;-72
2023/09/23 00:59:37;;;;;;;16.42;12.48;;;13.40;99.90;;;;;;5070108;28;20402;-72
2023/09/23 01:02:05;;;;;;;18.17;13.57;;;13.40;99.90;;;;;;5069595;28;20031;-72
2023/09/23 01:04:31;;;;;;;18.58;13.70;;;13.40;99.90;;;;;;5069611;28;20048;-72
2023/09/23 01:06:59;;;;;;;18.50;13.45;;;13.40;99.90;;;;;;5055601;28;20021;-72
2023/09/23 01:09:25;;;;;;;20.35;13.32;;;13.40;99.90;;;;;;5069172;28;20024;-72
2023/09/23 01:11:52;;;;;;;21.08;13.88;;;13.40;99.90;;;;;;5069608;28;20021;-72
2023/09/23 01:14:22;;;;;;;22.00;14.55;;;13.40;99.90;;;;;;5069656;28;20107;-72
2023/09/23 01:16:51;;;;;;;21.95;13.77;;;13.40;99.90;;;;;;5062235;28;20025;-72
2023/09/23 01:19:18;;;;;;;20.92;13.80;;;13.40;99.90;;;;;;5069815;28;20020;-71
2023/09/23 01:21:48;;;;;;;21.60;14.63;;;13.40;99.90;;;;;;5067545;28;20054;-71
2023/09/23 01:24:18;;;;;;;25.92;15.77;;;13.40;99.90;;;;;;5068111;28;20395;-71
2023/09/23 01:26:52;;;;;;;30.77;17.75;;;13.40;99.90;;;;;;5068693;28;20386;-71
2023/09/23 01:29:22;;;;;;;24.67;17.25;;;13.40;99.90;;;;;;5069975;28;20150;-71
2023/09/23 01:32:15;;;;;;;27.40;17.55;;;13.40;99.90;;;;;;5069739;28;20550;-71
2023/09/23 01:34:41;;;;;;;26.75;17.08;;;13.40;99.90;;;;;;5068849;28;20021;-71
2023/09/23 01:37:06;;;;;;;25.77;16.60;;;13.40;99.90;;;;;;5069116;28;20017;-72
2023/09/23 01:39:32;;;;;;;22.15;16.50;;;13.30;99.90;;;;;;5070171;28;20039;-71
2023/09/23 01:41:57;;;;;;;26.10;16.58;;;13.40;99.90;;;;;;5069140;28;20151;-72
2023/09/23 01:44:23;;;;;;;22.10;14.55;;;13.40;99.90;;;;;;5069825;28;20017;-72
2023/09/23 01:46:49;;;;;;;23.20;14.25;;;13.40;99.90;;;;;;5069615;28;20100;-72
2023/09/23 01:49:16;;;;;;;23.48;13.98;;;13.40;99.90;;;;;;5069651;28;20032;-72
2023/09/23 01:51:43;;;;;;;21.95;14.90;;;13.40;99.90;;;;;;5069596;28;20024;-72
2023/09/23 01:54:09;;;;;;;25.08;13.60;;;13.40;99.90;;;;;;5069726;28;20040;-72
2023/09/23 01:56:34;;;;;;;17.88;12.02;;;13.40;99.90;;;;;;5069582;28;20023;-72
2023/09/23 01:59:00;;;;;;;21.20;10.70;;;13.40;99.90;;;;;;5071639;28;20154;-72
2023/09/23 02:01:26;;;;;;;15.73;9.25;;;13.40;99.90;;;;;;5069359;28;20017;-72
2023/09/23 02:03:51;;;;;;;13.43;7.65;;;13.40;99.90;;;;;;5068236;28;20020;-72
2023/09/23 02:06:17;;;;;;;14.55;7.10;;;13.40;99.90;;;;;;5069603;28;20403;-72
2023/09/23 02:08:43;;;;;;;9.85;4.53;;;13.40;99.90;;;;;;5072291;28;20029;-71
2023/09/23 02:11:08;;;;;;;7.57;3.45;;;13.40;99.90;;;;;;5072449;28;20056;-72
2023/09/23 02:13:36;;;;;;;6.10;3.00;;;13.30;99.90;;;;;;5072134;28;20025;-72
2023/09/23 02:16:04;;;;;;;7.30;3.10;;;13.30;99.90;;;;;;5072474;28;20373;-71
2023/09/23 02:18:30;;;;;;;9.18;2.65;;;13.30;99.90;;;;;;5073556;28;20017;-72
2023/09/23 02:20:56;;;;;;;7.45;2.70;;;13.30;99.90;;;;;;5072658;28;20103;-72
2023/09/23 02:23:22;;;;;;;5.05;2.30;;;13.30;99.90;;;;;;5072823;28;20539;-72
2023/09/23 02:25:49;;;;;;;7.20;2.60;;;13.20;99.90;;;;;;5072089;28;20353;-72
2023/09/23 02:28:15;;;;;;;6.78;2.78;;;13.20;99.90;;;;;;5072586;28;20020;-71
2023/09/23 02:30:42;;;;;;;5.68;2.97;;;13.20;99.90;;;;;;5072548;28;20421;-72
2023/09/23 02:33:08;;;;;;;8.88;3.10;;;13.20;99.90;;;;;;5073158;28;20027;-72
2023/09/23 02:35:34;;;;;;;6.57;3.08;;;13.20;99.90;;;;;;5072983;28;20021;-71
2023/09/23 02:38:01;;;;;;;6.13;3.10;;;13.20;99.90;;;;;;5071905;28;20091;-71
2023/09/23 02:40:27;;;;;;;9.88;3.28;;;13.10;99.90;;;;;;5072794;28;20028;-71
2023/09/23 02:42:53;;;;;;;10.00;3.28;;;13.10;99.90;;;;;;5072417;28;20107;-71
2023/09/23 02:45:20;;;;;;;6.07;3.08;;;13.10;99.90;;;;;;5072623;28;20016;-71
2023/09/23 02:47:46;;;;;;;9.35;3.15;;;13.10;99.90;;;;;;5072211;28;20032;-71
2023/09/23 02:50:17;;;;;;;8.10;3.05;;;13.10;99.90;;;;;;5072368;28;20479;-71
2023/09/23 02:52:48;;;;;;;7.70;3.17;;;13.10;99.90;;;;;;5071752;28;20517;-71
2023/09/23 02:55:19;;;;;;;7.88;3.33;;;13.10;99.90;;;;;;5072672;28;20029;-71
2023/09/23 02:57:54;;;;;;;5.05;2.58;;;13.10;99.90;;;;;;5070979;28;20468;-71
2023/09/23 03:00:22;;;;;;;9.85;2.53;;;13.10;99.90;;;;;;5072788;28;20116;-71
2023/09/23 03:02:59;;;;;;;7.05;2.70;;;13.10;99.90;;;;;;5061873;28;20104;-71
2023/09/23 03:05:28;;;;;;;6.53;2.72;;;13.10;99.90;;;;;;5071681;28;20127;-71
2023/09/23 03:07:57;;;;;;;6.22;2.42;;;13.10;99.90;;;;;;5072199;28;20008;-71
2023/09/23 03:10:31;;;;;;;5.43;1.88;;;13.10;99.90;;;;;;5071824;28;20024;-71
2023/09/23 03:13:06;;;;;;;6.70;2.03;;;13.10;99.90;;;;;;5071770;28;20040;-71
2023/09/23 03:15:48;;;;;;;4.18;1.73;;;13.10;99.90;;;;;;5072065;28;20236;-71
2023/09/23 03:18:27;;;;;;;9.23;2.08;;;13.10;99.90;;;;;;5071057;28;20025;-72
2023/09/23 03:20:57;;;;;;;7.07;2.10;;;13.00;99.90;;;;;;5067585;28;20052;-72
2023/09/23 03:23:23;;;;;;;6.85;2.28;;;13.10;99.90;;;;;;5071231;28;20027;-72
2023/09/23 03:25:51;;;;;;;7.78;2.97;;;13.10;99.90;;;;;;5071858;28;20028;-71
2023/09/23 03:28:17;;;;;;;9.15;3.58;;;13.10;99.90;;;;;;5087221;28;20459;-71
2023/09/23 03:30:44;;;;;;;12.20;4.43;;;13.20;99.90;;;;;;5073516;28;20467;-71
2023/09/23 03:33:11;;;;;;;10.88;4.60;;;13.20;99.90;;;;;;5074458;28;20033;-71
2023/09/23 03:35:38;;;;;;;8.43;5.05;;;13.30;99.90;;;;;;5072618;28;20013;-71
2023/09/23 03:38:04;;;;;;;10.98;5.53;;;13.30;99.90;;;;;;5071941;28;20016;-71
2023/09/23 03:40:31;;;;;;;10.35;6.30;;;13.30;99.90;;;;;;5071134;28;20408;-71
2023/09/23 03:42:57;;;;;;;12.38;6.28;;;13.30;99.90;;;;;;5070594;28;20416;-71
2023/09/23 03:45:23;;;;;;;12.45;6.45;;;13.30;99.90;;;;;;5072083;28;20150;-71
2023/09/23 03:47:49;;;;;;;12.88;6.85;;;13.40;99.90;;;;;;5070595;28;20103;-71
2023/09/23 03:50:15;;;;;;;14.10;7.03;;;13.30;99.90;;;;;;5087017;28;20490;-72
2023/09/23 03:52:42;;;;;;;12.82;6.75;;;13.30;99.90;;;;;;5070023;28;20111;-71
2023/09/23 03:55:11;;;;;;;13.00;7.18;;;13.30;99.90;;;;;;5071249;28;20107;-71
2023/09/23 03:57:38;;;;;;;12.90;7.88;;;13.30;99.90;;;;;;5071556;28;20016;-71
2023/09/23 04:00:14;;;;;;;13.55;7.72;;;13.30;99.90;;;;;;5070874;28;20021;-71
2023/09/23 04:02:40;;;;;;;15.18;8.15;;;13.30;99.90;;;;;;5071514;28;20028;-71
2023/09/23 04:05:05;;;;;;;15.18;8.40;;;13.30;99.90;;;;;;5070558;28;20056;-71
2023/09/23 04:07:32;;;;;;;12.85;8.48;;;13.30;99.90;;;;;;5070747;28;20103;-71
2023/09/23 04:09:58;;;;;;;16.33;9.45;;;13.30;99.90;;;;;;5071001;28;20017;-71
2023/09/23 04:12:23;;;;;;;19.75;9.07;;;13.30;99.90;;;;;;5071036;28;20017;-71
2023/09/23 04:14:49;;;;;;;15.98;8.27;;;13.30;99.90;;;;;;5070173;28;20410;-71
2023/09/23 04:17:15;;;;;;;17.10;8.63;;;13.20;99.90;;;;;;5070702;28;20387;-71
2023/09/23 04:19:41;;;;;;;15.65;8.45;;;13.20;99.90;;;;;;5086393;28;20025;-71
2023/09/23 04:22:06;;;;;;;13.52;7.97;;;13.20;99.90;;;;;;5070238;28;20365;-71
2023/09/23 04:24:32;;;;;;;17.35;8.38;;;13.20;99.90;;;;;;5069079;28;20036;-71
2023/09/23 04:26:59;;;;;;;11.15;7.82;;;13.20;99.90;;;;;;5069716;28;20096;-71
2023/09/23 04:29:25;;;;;;;13.90;7.38;;;13.20;99.90;;;;;;5068655;28;20099;-71
2023/09/23 04:31:51;;;;;;;16.10;7.30;;;13.20;99.90;;;;;;5070307;28;20120;-71
2023/09/23 04:34:17;;;;;;;10.85;6.45;;;13.10;99.90;;;;;;5069975;28;20100;-71
2023/09/23 04:36:44;;;;;;;9.82;6.53;;;13.10;99.90;;;;;;5070506;28;20024;-71
2023/09/23 04:39:10;;;;;;;12.35;6.00;;;13.10;99.90;;;;;;5069436;28;20028;-71
2023/09/23 04:41:39;;;;;;;11.55;5.35;;;13.10;99.90;;;;;;5070301;28;20090;-71
2023/09/23 04:44:05;;;;;;;12.48;5.38;;;13.10;99.90;;;;;;5070129;28;20043;-71
2023/09/23 04:46:33;;;;;;;7.72;5.05;;;13.00;99.90;;;;;;5070009;28;20024;-71
2023/09/23 04:49:00;;;;;;;10.45;5.30;;;13.00;99.90;;;;;;5069879;28;20017;-71
2023/09/23 04:51:26;;;;;;;8.27;5.20;;;13.00;99.90;;;;;;5068407;28;20032;-71
2023/09/23 04:53:52;;;;;;;10.73;5.65;;;13.00;99.90;;;;;;5070062;28;20016;-71
2023/09/23 04:56:17;;;;;;;12.13;5.32;;;13.00;99.90;;;;;;5069144;28;20094;-71
2023/09/23 04:58:43;;;;;;;11.50;5.85;;;13.00;99.90;;;;;;5070395;28;20056;-71
2023/09/23 05:01:15;;;;;;;10.80;6.35;;;13.00;99.90;;;;;;5069844;28;20033;-71
2023/09/23 05:03:42;;;;;;;15.75;6.00;;;13.00;99.90;;;;;;5069827;28;20040;-71
2023/09/23 05:06:09;;;;;;;11.05;5.75;;;13.00;99.90;;;;;;5069899;28;20044;-71
2023/09/23 05:08:35;;;;;;;14.77;6.13;;;13.10;99.90;;;;;;5070147;28;20044;-71
2023/09/23 05:11:02;;;;;;;11.95;5.57;;;13.10;99.90;;;;;;5069974;28;20414;-71
2023/09/23 05:13:29;;;;;;;15.32;6.07;;;13.10;99.90;;;;;;5069761;28;20020;-71
2023/09/23 05:15:55;;;;;;;13.32;6.07;;;13.10;99.90;;;;;;5070034;28;20017;-71
2023/09/23 05:18:21;;;;;;;15.02;6.28;;;13.20;99.90;;;;;;5069558;28;20548;-71
2023/09/23 05:20:47;;;;;;;12.93;5.88;;;13.20;99.90;;;;;;5069845;28;20095;-71
2023/09/23 05:23:13;;;;;;;12.57;6.03;;;13.20;99.90;;;;;;5068315;28;20298;-71
2023/09/23 05:25:41;;;;;;;14.95;6.00;;;13.20;99.90;;;;;;5069855;28;20099;-71
2023/09/23 05:28:06;;;;;;;11.98;5.68;;;13.20;99.90;;;;;;5069743;28;20067;-71
2023/09/23 05:30:32;;;;;;;12.40;5.68;;;13.20;99.90;;;;;;5059989;28;20067;-71
2023/09/23 05:32:58;;;;;;;13.07;5.28;;;13.20;99.90;;;;;;5068119;28;20020;-71
2023/09/23 05:35:24;;;;;;;11.63;4.90;;;13.30;99.90;;;;;;5069655;28;20020;-71
2023/09/23 05:37:51;;;;;;;12.63;5.50;;;13.30;99.90;;;;;;5069657;28;20021;-71
2023/09/23 05:42:50;;;;;;;12.95;5.32;;;13.30;99.90;;;;;;5070066;28;20036;-71
2023/09/23 05:45:17;;;;;;;14.00;4.72;;;13.30;99.90;;;;;;5071270;28;20017;-71
2023/09/23 05:47:42;;;;;;;10.85;4.13;;;13.30;99.90;;;;;;5072692;28;20103;-71
2023/09/23 05:50:11;;;;;;;10.98;4.95;;;13.30;99.90;;;;;;5072729;28;20034;-72
2023/09/23 05:52:37;;;;;;;11.02;4.60;;;13.40;99.90;;;;;;5069672;28;20028;-71
2023/09/23 05:55:04;;;;;;;15.98;4.07;;;13.40;99.90;;;;;;5072714;28;20476;-72
2023/09/23 05:57:30;;;;;;;11.98;4.00;;;13.40;99.90;;;;;;5072669;28;20502;-72
2023/09/23 05:59:56;;;;;;;10.25;3.50;;;13.40;99.90;;;;;;5072541;28;20087;-72
2023/09/23 06:02:21;;;;;;;9.75;3.55;;;13.40;99.90;;;;;;5072818;28;20535;-72
2023/09/23 06:04:47;;;;;;;7.45;2.90;;;13.40;99.90;;;;;;5070994;28;20044;-72
2023/09/23 06:07:13;;;;;;;9.70;3.50;;;13.40;99.90;;;;;;5071554;28;20056;-72
2023/09/23 06:09:43;;;;;;;11.77;2.85;;;13.50;99.90;;;;;;5072306;28;20052;-72
2023/09/23 06:12:09;;;;;;;8.32;2.70;;;13.50;99.90;;;;;;5069634;28;20547;-72
2023/09/23 06:14:34;;;;;;;8.95;2.90;;;13.50;99.90;;;;;;5069513;28;20042;-72
2023/09/23 06:17:00;;;;;;;8.05;2.65;;;13.60;99.90;;;;;;5072666;28;20013;-72
2023/09/23 06:19:25;;;;;;;12.25;2.92;;;13.60;99.90;;;;;;5073035;28;20506;-73
2023/09/23 06:21:51;;;;;;;11.88;2.95;;;13.60;99.90;;;;;;5072120;28;20036;-72
2023/09/23 06:24:17;;;;;;;8.38;2.70;;;13.60;99.90;;;;;;5073268;28;20471;-72
2023/09/23 06:26:42;;;;;;;10.63;2.78;;;13.60;99.90;;;;;;5073474;28;20012;-71
2023/09/23 06:29:09;;;;;;;10.65;3.10;;;13.60;99.90;;;;;;5071447;28;20397;-71
2023/09/23 06:31:35;;;;;;;10.23;2.70;;;13.70;99.90;;;;;;5062048;28;20380;-71
2023/09/23 06:34:00;;;;;;;7.05;2.60;;;13.70;99.90;;;;;;5072273;28;20074;-71
2023/09/23 06:36:26;;;;;;;9.73;3.00;;;13.70;99.90;;;;;;5071716;28;20063;-71
2023/09/23 06:38:52;;;;;;;8.05;2.60;;;13.80;99.90;;;;;;5071764;28;20029;-71
2023/09/23 06:41:18;;;;;;;10.63;2.60;;;13.80;99.90;;;;;;5072042;28;20058;-71
2023/09/23 06:43:43;;;;;;;7.82;2.67;;;13.90;99.90;;;;;;5072204;28;20436;-71
2023/09/23 06:46:11;;;;;;;8.27;2.90;;;13.90;99.90;;;;;;5072113;28;20024;-71
2023/09/23 06:48:37;;;;;;;11.02;2.80;;;13.90;99.90;;;;;;5087758;28;20031;-71
2023/09/23 06:51:03;;;;;;;9.52;2.92;;;13.90;99.90;;;;;;5069327;28;20029;-70
2023/09/23 06:53:30;;;;;;;11.82;2.90;;;13.90;99.90;;;;;;5068670;28;20048;-71
2023/09/23 06:55:56;;;;;;;7.18;2.70;;;14.00;99.90;;;;;;5071531;28;20024;-71
2023/09/23 06:58:22;;;;;;;6.53;2.63;;;14.00;99.90;;;;;;5072216;28;20048;-71
2023/09/23 07:00:47;;;;;;;7.95;2.70;;;14.00;99.90;;;;;;5071901;28;20056;-71
2023/09/23 07:03:13;;;;;;;11.10;2.60;;;14.00;99.90;;;;;;5072272;28;20028;-71
2023/09/23 07:05:39;;;;;;;12.43;2.92;;;14.00;99.90;;;;;;5071784;28;20134;-71
2023/09/23 07:08:05;;;;;;;8.63;3.25;;;14.00;99.90;;;;;;5072192;28;20013;-71
2023/09/23 07:10:39;;;;;;;10.68;3.00;;;14.00;99.90;;;;;;5071771;28;20042;-71
2023/09/23 07:13:05;;;;;;;7.45;3.25;;;14.00;99.90;;;;;;5072034;28;20028;-71
2023/09/23 07:15:37;;;;;;;8.35;3.25;;;14.00;99.90;;;;;;5071730;28;20028;-71
2023/09/23 07:18:04;;;;;;;6.55;3.40;;;14.10;99.90;;;;;;5070433;28;20278;-71
2023/09/23 07:20:30;;;;;;;8.88;3.42;;;14.10;99.90;;;;;;5071563;28;20020;-71
2023/09/23 07:22:56;;;;;;;9.32;3.85;;;14.10;99.90;;;;;;5071007;28;20383;-71
2023/09/23 07:25:22;;;;;;;7.68;3.70;;;14.20;99.90;;;;;;5071751;28;20593;-71
2023/09/23 07:27:47;;;;;;;10.00;3.53;;;14.20;99.90;;;;;;5071705;28;20048;-71
2023/09/23 07:30:14;;;;;;;7.82;3.80;;;14.20;99.90;;;;;;5064398;28;20102;-71
2023/09/23 07:32:40;;;;;;;9.30;3.80;;;14.20;99.90;;;;;;5069892;28;20074;-71
2023/09/23 07:35:07;;;;;;;7.40;3.88;;;14.20;99.90;;;;;;5071755;28;20021;-71
2023/09/23 07:37:33;;;;;;;10.02;4.18;;;14.30;99.90;;;;;;5072719;28;20522;-71
2023/09/23 07:39:59;;;;;;;10.73;4.45;;;14.30;99.90;;;;;;5070730;28;20104;-72
2023/09/23 07:42:25;;;;;;;8.90;4.20;;;14.40;99.90;;;;;;5071013;28;20031;-71
2023/09/23 07:44:50;;;;;;;8.60;4.10;;;14.40;99.90;;;;;;5066132;28;20063;-71
2023/09/23 07:47:16;;;;;;;7.95;3.75;;;14.40;99.90;;;;;;5066718;28;20020;-69
2023/09/23 07:49:41;;;;;;;7.88;4.00;;;14.40;99.90;;;;;;5070506;28;20391;-71
2023/09/23 07:52:07;;;;;;;12.63;4.13;;;14.50;99.90;;;;;;5071469;28;20087;-71
2023/09/23 07:54:33;;;;;;;13.75;4.32;;;14.50;99.90;;;;;;5070738;28;20023;-71
2023/09/23 07:56:59;;;;;;;8.90;3.85;;;14.60;99.90;;;;;;5067173;28;20017;-71
2023/09/23 07:59:24;;;;;;;10.88;3.40;;;14.60;99.90;;;;;;5070571;28;20024;-71
2023/09/23 08:01:50;;;;;;;8.52;3.38;;;14.70;99.90;;;;;;5070785;28;20485;-71
2023/09/23 08:04:15;;;;;;;10.30;3.17;;;14.70;99.90;;;;;;5070624;28;20396;-71
2023/09/23 08:06:42;;;;;;;11.20;3.30;;;14.80;99.90;;;;;;5070099;28;20031;-71
2023/09/23 08:09:09;;;;;;;11.73;3.20;;;14.80;99.90;;;;;;5070816;28;20045;-71
2023/09/23 08:11:35;;;;;;;8.98;2.95;;;14.90;99.90;;;;;;5068719;28;20480;-71
2023/09/23 08:14:01;;;;;;;7.13;2.80;;;14.90;99.90;;;;;;5054974;28;20029;-71
2023/09/23 08:16:26;;;;;;;8.02;2.97;;;15.00;99.90;;;;;;5068478;28;20048;-71
2023/09/23 08:18:52;;;;;;;7.07;2.60;;;15.10;99.90;;;;;;5070427;28;20028;-71
2023/09/23 08:21:18;;;;;;;8.68;2.67;;;15.10;99.90;;;;;;5071379;28;20775;-71
2023/09/23 08:23:43;;;;;;;6.38;2.40;;;15.20;99.90;;;;;;5071623;28;20356;-71
2023/09/23 08:26:10;;;;;;;7.75;2.50;;;15.30;99.90;;;;;;5070493;28;20365;-71
2023/09/23 08:28:36;;;;;;;7.82;2.40;;;15.40;99.90;;;;;;5071474;28;20012;-71
2023/09/23 08:31:02;;;;;;;7.32;2.70;;;15.50;99.90;;;;;;5070138;28;20028;-71
2023/09/23 08:33:28;;;;;;;4.80;2.10;;;15.70;99.90;;;;;;5070466;28;20036;-71
2023/09/23 08:35:53;;;;;;;8.30;2.38;;;15.80;99.90;;;;;;5070288;28;20028;-71
2023/09/23 08:38:20;;;;;;;8.77;2.00;;;15.90;99.90;;;;;;5069120;28;20031;-71
2023/09/23 08:40:46;;;;;;;7.72;2.03;;;15.90;99.90;;;;;;5068457;28;20020;-71
2023/09/23 08:43:12;;;;;;;5.07;1.80;;;16.00;99.90;;;;;;5068193;28;20496;-71
2023/09/23 08:45:43;;;;;;;7.45;1.92;;;16.00;99.90;;;;;;5061592;28;20031;-71
2023/09/23 08:48:09;;;;;;;7.00;2.00;;;16.00;99.90;;;;;;5067290;28;20024;-71
2023/09/23 08:50:36;;;;;;;7.32;1.50;;;16.10;99.90;;;;;;5062301;28;20108;-70
2023/09/23 08:53:05;;;;;;;4.70;1.75;;;16.10;99.90;;;;;;5066969;28;20029;-71
2023/09/23 08:55:31;;;;;;;3.83;1.80;;;16.20;99.90;;;;;;5060504;28;20033;-70
2023/09/23 08:58:01;;;;;;;5.32;1.98;;;16.20;99.90;;;;;;5067816;28;20020;-71
2023/09/23 09:00:30;;;;;;;4.68;1.50;;;16.20;99.90;;;;;;5068605;28;20448;-71
2023/09/23 09:02:56;;;;;;;4.97;1.60;;;16.30;99.90;;;;;;5068071;28;20095;-70
2023/09/23 09:05:23;;;;;;;4.55;1.45;;;16.30;99.90;;;;;;5068570;28;20131;-71
2023/09/23 09:07:50;;;;;;;6.35;1.60;;;16.20;99.90;;;;;;5063304;28;20426;-70
2023/09/23 09:10:17;;;;;;;6.20;1.42;;;16.20;99.90;;;;;;5067005;28;20393;-70
2023/09/23 09:12:43;;;;;;;5.68;1.52;;;16.20;99.90;;;;;;5068131;28;20021;-71
2023/09/23 09:15:09;;;;;;;3.00;1.00;;;16.20;99.90;;;;;;5061312;28;20104;-71
2023/09/23 09:17:35;;;;;;;3.15;0.73;;;16.20;99.90;;;;;;5073217;28;20084;-71
2023/09/23 09:20:08;;;;;;;5.43;0.95;;;16.00;99.90;;;;;;5075938;28;20025;-71
2023/09/23 09:22:36;;;;;;;3.78;0.88;;;15.90;99.90;;;;;;5075796;28;20042;-71
2023/09/23 09:25:03;;;;;;;4.22;1.02;;;15.80;99.90;;;;;;5074747;28;20039;-70
2023/09/23 09:27:29;;;;;;;4.93;0.77;;;15.70;99.90;;;;;;5074187;28;20052;-70
2023/09/23 09:29:54;;;;;;;5.53;1.15;;;15.70;99.90;;;;;;5073636;28;20059;-71
2023/09/23 09:32:29;;;;;;;6.80;0.98;;;15.60;99.90;;;;;;5073932;28;20021;-70
2023/09/23 09:34:59;;;;;;;5.30;1.25;;;15.50;99.90;;;;;;5073297;28;20024;-71
2023/09/23 09:37:27;;;;;;;5.10;1.13;;;15.50;99.90;;;;;;5074063;28;20071;-71
2023/09/23 09:40:11;;;;;;;4.78;1.38;;;15.50;99.90;;;;;;5073138;28;20020;-70
2023/09/23 09:42:39;;;;;;;4.80;1.40;;;15.40;99.90;;;;;;5073573;28;20656;-70
2023/09/23 09:45:09;;;;;;;7.47;1.60;;;15.40;99.90;;;;;;5062886;28;20024;-70
2023/09/23 09:47:36;;;;;;;7.18;1.63;;;15.40;99.90;;;;;;5072638;28;20066;-70
2023/09/23 09:50:04;;;;;;;8.85;2.10;;;15.50;99.90;;;;;;5073107;28;20079;-70
2023/09/23 09:52:31;;;;;;;4.15;1.75;;;15.50;99.90;;;;;;5073181;28;20067;-70
2023/09/23 09:55:00;;;;;;;6.07;1.70;;;15.60;99.90;;;;;;5073425;28;20451;-70
2023/09/23 09:57:29;;;;;;;7.30;1.73;;;15.70;99.90;;;;;;5069819;28;20020;-70
2023/09/23 10:00:08;;;;;;;7.55;1.60;;;15.70;99.90;;;;;;5073080;28;20040;-70
2023/09/23 10:02:37;;;;;;;8.23;1.90;;;15.80;99.90;;;;;;5073393;28;20482;-70
2023/09/23 10:05:03;;;;;;;10.23;2.20;;;15.80;99.90;;;;;;5072751;28;20045;-70
2023/09/23 10:07:48;;;;;;;6.95;1.90;;;15.90;99.90;;;;;;5073096;28;20380;-70
2023/09/23 10:10:14;;;;;;;9.45;1.90;;;15.90;99.90;;;;;;5073327;28;20399;-70
2023/09/23 10:12:48;;;;;;;10.65;2.15;;;16.00;99.90;;;;;;5072937;28;20029;-70
2023/09/23 10:15:27;;;;;;;10.13;2.25;;;16.00;99.90;;;;;;5072786;28;20021;-70
2023/09/23 10:17:54;;;;;;;10.88;1.95;;;16.10;99.90;;;;;;5072982;28;20480;-70
2023/09/23 10:20:23;;;;;;;6.50;1.67;;;16.00;99.90;;;;;;5073135;28;20028;-70
2023/09/23 10:22:55;;;;;;;6.15;1.30;;;16.00;99.90;;;;;;5072793;28;20460;-70
2023/09/23 10:25:20;;;;;;;4.70;1.17;;;16.00;99.90;;;;;;5072730;28;20480;-70
2023/09/23 10:28:00;;;;;;;6.95;0.68;;;16.00;99.90;;;;;;5072136;28;20028;-70
2023/09/23 10:30:26;;;;;;;3.38;0.70;;;15.90;99.90;;;;;;5065256;28;20032;-70
2023/09/23 10:32:52;;;;;;;4.78;0.82;;;15.80;99.90;;;;;;5067675;28;20020;-70
2023/09/23 10:35:26;;;;;;;5.15;1.00;;;15.80;99.90;;;;;;5072514;28;20387;-70
2023/09/23 10:37:51;;;;;;;3.35;1.00;;;15.80;99.90;;;;;;5072831;28;20017;-70
2023/09/23 10:40:18;;;;;;;4.47;1.20;;;15.80;99.90;;;;;;5072296;28;20348;-70
2023/09/23 10:42:46;;;;;;;4.10;1.08;;;15.80;99.90;;;;;;5072171;28;20016;-70
2023/09/23 10:45:14;;;;;;;5.85;1.10;;;15.90;99.90;;;;;;5088244;28;20031;-70
2023/09/23 10:47:43;;;;;;;6.28;1.40;;;15.90;99.90;;;;;;5072222;28;20025;-70
2023/09/23 10:50:09;;;;;;;7.28;1.77;;;15.90;99.90;;;;;;5072430;28;20464;-70
2023/09/23 10:52:36;;;;;;;8.60;1.60;;;16.00;99.90;;;;;;5087766;28;20427;-70
2023/09/23 10:55:02;;;;;;;10.77;1.73;;;16.10;99.90;;;;;;5072128;28;20506;-70
2023/09/23 10:57:28;;;;;;;5.25;1.13;;;16.20;99.90;;;;;;5071910;28;20016;-70
2023/09/23 10:59:55;;;;;;;7.40;1.08;;;16.30;99.90;;;;;;5072487;28;20030;-70
2023/09/23 11:02:22;;;;;;;10.93;1.30;;;16.20;99.90;;;;;;5071597;28;20028;-70
2023/09/23 11:04:49;;;;;;;6.80;1.25;;;16.20;99.90;;;;;;5070454;28;20132;-70
2023/09/23 11:07:18;;;;;;;4.97;1.00;;;16.20;99.90;;;;;;5081184;28;20036;-69
2023/09/23 11:09:45;;;;;;;7.63;1.05;;;16.30;99.90;;;;;;5069598;28;20016;-70
2023/09/23 11:12:15;;;;;;;4.40;0.73;;;16.30;99.90;;;;;;5071622;28;20024;-69
2023/09/23 11:14:48;;;;;;;5.72;1.08;;;16.30;99.90;;;;;;5071380;28;20033;-69
2023/09/23 11:17:20;;;;;;;4.53;1.02;;;16.30;99.90;;;;;;5071871;28;20048;-69
2023/09/23 11:19:56;;;;;;;5.88;1.38;;;16.30;99.90;;;;;;5071243;28;20029;-70
2023/09/23 11:22:27;;;;;;;5.35;1.40;;;16.30;99.90;;;;;;5071592;28;20029;-70
2023/09/23 11:24:57;;;;;;;6.60;1.35;;;16.40;99.90;;;;;;5071486;28;20078;-70
2023/09/23 11:27:24;;;;;;;7.18;1.48;;;16.50;99.90;;;;;;5071706;28;20021;-70
2023/09/23 11:29:51;;;;;;;11.10;1.63;;;16.50;99.90;;;;;;5070717;28;20032;-69
2023/09/23 11:32:23;;;;;;;8.40;1.73;;;16.50;99.90;;;;;;5071555;28;20089;-69
2023/09/23 11:34:50;;;;;;;4.93;1.35;;;16.50;99.90;;;;;;5060949;28;20024;-69
2023/09/23 11:37:17;;;;;;;5.35;1.50;;;16.50;99.90;;;;;;5065965;28;20017;-69
2023/09/23 11:39:42;;;;;;;6.65;1.80;;;16.60;99.90;;;;;;5067096;28;20050;-70
2023/09/23 11:42:08;;;;;;;4.43;1.67;;;16.50;99.90;;;;;;5068470;28;20032;-69
2023/09/23 11:44:34;;;;;;;8.55;2.15;;;16.50;99.90;;;;;;5068219;28;20051;-70
2023/09/23 11:47:00;;;;;;;6.85;1.80;;;16.40;99.90;;;;;;5071530;28;20071;-69
2023/09/23 11:49:25;;;;;;;10.88;2.20;;;16.50;99.90;;;;;;5071002;28;20450;-70
2023/09/23 11:51:51;;;;;;;4.82;1.52;;;16.40;99.90;;;;;;5070118;28;20510;-69
2023/09/23 11:54:17;;;;;;;9.55;1.90;;;16.40;99.90;;;;;;5070055;28;20483;-70
2023/09/23 11:56:43;;;;;;;6.80;1.75;;;16.50;99.90;;;;;;5068610;28;20025;-69
2023/09/23 11:59:08;;;;;;;10.35;2.10;;;16.50;99.90;;;;;;5069807;28;20027;-70
2023/09/23 12:01:34;;;;;;;9.70;1.80;;;16.50;99.90;;;;;;5070516;28;20032;-69
2023/09/23 12:04:00;;;;;;;11.15;2.03;;;16.50;99.90;;;;;;5070224;28;20035;-68
2023/09/23 12:06:26;;;;;;;7.95;1.98;;;16.60;99.90;;;;;;5070314;28;20032;-69
2023/09/23 12:08:51;;;;;;;6.93;1.98;;;16.70;99.90;;;;;;5072719;28;20392;-69
2023/09/23 12:11:21;;;;;;;7.63;1.67;;;16.70;99.90;;;;;;5074370;28;20029;-70
2023/09/23 12:13:52;;;;;;;4.75;1.70;;;16.80;99.90;;;;;;5065183;28;20591;-70
2023/09/23 12:16:17;;;;;;;7.95;1.85;;;16.80;99.90;;;;;;5070921;28;20048;-70
2023/09/23 12:18:44;;;;;;;7.30;1.45;;;16.90;99.90;;;;;;5070241;28;20050;-70
2023/09/23 12:21:10;;;;;;;4.88;1.40;;;16.90;99.90;;;;;;5072169;28;20033;-70
2023/09/23 12:23:37;;;;;;;5.28;1.70;;;16.90;99.90;;;;;;5071595;28;20009;-70
2023/09/23 12:26:03;;;;;;;5.85;1.58;;;16.90;99.90;;;;;;5060963;28;20028;-70
2023/09/23 12:28:29;;;;;;;7.00;1.60;;;16.90;99.90;;;;;;5071723;28;20012;-70
2023/09/23 12:30:55;;;;;;;6.57;1.50;;;16.90;99.90;;;;;;5071963;28;20024;-70
2023/09/23 12:33:20;;;;;;;5.70;1.05;;;16.90;99.90;;;;;;5071046;28;20024;-70
2023/09/23 12:35:47;;;;;;;4.53;1.10;;;16.90;99.90;;;;;;5069452;28;20040;-70
2023/09/23 12:38:12;;;;;;;4.63;1.30;;;16.90;99.90;;;;;;5068936;28;20433;-70
2023/09/23 12:40:38;;;;;;;7.65;1.30;;;16.90;99.90;;;;;;5068331;28;20026;-70
2023/09/23 12:43:04;;;;;;;4.60;1.13;;;17.00;99.90;;;;;;5067836;28;20028;-70